Time;durP1;ratioP1;P1;durP2;ratioP2;P2;SDS_P1;SDS_P2;PMS_P1;PMS_P2;Temp;Humidity;BMP_temperature;BMP_pressure;BME280_temperature;BME280_humidity;BME280_pressure;Samples;Min_cycle;Max_cycle;Signal;HPM_P1;HPM_P2
2023/02/21 05:00:32;;;;;;;0.38;0.38;;;9.20;99.90;;;;;;5882832;23;21208;-69
2023/02/21 05:02:59;;;;;;;2.50;0.50;;;9.20;99.90;;;;;;5022613;28;20206;-68
2023/02/21 05:05:26;;;;;;;0.30;0.30;;;9.30;99.90;;;;;;5026219;28;20209;-69
2023/02/21 05:07:53;;;;;;;0.22;0.22;;;9.20;99.90;;;;;;5027765;28;20213;-68
2023/02/21 05:10:20;;;;;;;0.20;0.20;;;9.20;99.90;;;;;;5026383;28;21729;-69
2023/02/21 05:12:47;;;;;;;0.20;0.20;;;9.20;99.90;;;;;;5010120;28;20203;-68
2023/02/21 05:15:14;;;;;;;0.30;0.30;;;9.20;99.90;;;;;;5007016;28;20333;-69
2023/02/21 05:17:43;;;;;;;0.20;0.20;;;9.20;99.90;;;;;;5009285;28;20326;-69
2023/02/21 05:20:11;;;;;;;0.40;0.40;;;9.20;99.90;;;;;;5007747;28;20207;-69
2023/02/21 05:22:38;;;;;;;0.28;0.28;;;9.20;99.90;;;;;;5008575;28;20261;-69
2023/02/21 05:25:06;;;;;;;0.20;0.20;;;9.20;99.90;;;;;;5006767;28;20550;-69
2023/02/21 05:27:33;;;;;;;0.25;0.25;;;9.20;99.90;;;;;;5001138;28;20207;-69
2023/02/21 05:30:00;;;;;;;0.20;0.20;;;9.20;99.90;;;;;;5008850;28;20270;-69
2023/02/21 05:32:28;;;;;;;0.20;0.20;;;9.10;99.90;;;;;;5009052;28;20306;-69
2023/02/21 05:34:56;;;;;;;0.20;0.20;;;9.10;99.90;;;;;;5010079;28;20242;-69
2023/02/21 05:37:23;;;;;;;0.20;0.20;;;9.20;99.90;;;;;;5005727;28;20281;-69
2023/02/21 05:39:50;;;;;;;0.20;0.20;;;9.10;99.90;;;;;;5006598;28;20687;-69
2023/02/21 05:42:17;;;;;;;0.40;0.40;;;9.10;99.90;;;;;;5011912;28;20794;-68
2023/02/21 05:44:44;;;;;;;0.45;0.40;;;9.10;99.90;;;;;;5012150;28;20321;-69
2023/02/21 05:47:11;;;;;;;2.28;0.88;;;9.10;99.90;;;;;;5008941;28;20209;-69
2023/02/21 05:49:38;;;;;;;0.40;0.40;;;9.10;99.90;;;;;;5010264;28;20203;-69
2023/02/21 05:52:07;;;;;;;0.70;0.70;;;9.10;99.90;;;;;;5011604;28;20227;-69
2023/02/21 05:54:34;;;;;;;1.05;0.40;;;9.10;99.90;;;;;;5011105;28;20215;-69
2023/02/21 05:57:00;;;;;;;0.20;0.20;;;9.10;99.90;;;;;;5012866;28;20207;-69
2023/02/21 05:59:27;;;;;;;3.08;0.30;;;9.10;99.90;;;;;;5009183;28;20203;-69
2023/02/21 06:01:54;;;;;;;0.52;0.30;;;9.10;99.90;;;;;;5011523;28;20258;-67
2023/02/21 06:04:21;;;;;;;0.10;0.10;;;9.10;99.90;;;;;;5011302;28;20207;-69
2023/02/21 06:06:48;;;;;;;0.10;0.10;;;9.10;99.90;;;;;;5006964;28;20227;-69
2023/02/21 06:09:17;;;;;;;0.40;0.40;;;9.10;99.90;;;;;;5010738;28;20323;-69
2023/02/21 06:11:44;;;;;;;0.30;0.30;;;9.10;99.90;;;;;;5011164;28;20219;-68
2023/02/21 06:14:16;;;;;;;0.20;0.20;;;9.10;99.90;;;;;;5010224;28;20652;-69
2023/02/21 06:16:43;;;;;;;0.45;0.43;;;9.10;99.90;;;;;;5013096;28;20200;-68
2023/02/21 06:19:11;;;;;;;0.20;0.20;;;9.10;99.90;;;;;;5009741;28;20199;-69
2023/02/21 06:21:39;;;;;;;0.20;0.20;;;9.00;99.90;;;;;;5009893;28;20223;-69
2023/02/21 06:24:06;;;;;;;0.20;0.20;;;9.10;99.90;;;;;;5010441;28;20203;-69
2023/02/21 06:26:36;;;;;;;5.80;0.50;;;9.10;99.90;;;;;;5012038;28;20582;-69
2023/02/21 06:29:03;;;;;;;0.10;0.10;;;9.10;99.90;;;;;;5011680;28;20349;-69
2023/02/21 06:31:30;;;;;;;0.38;0.20;;;9.00;99.90;;;;;;5008646;28;20230;-68
2023/02/21 06:33:57;;;;;;;0.10;0.10;;;9.00;99.90;;;;;;5006538;28;20322;-68
2023/02/21 06:36:25;;;;;;;0.45;0.45;;;9.10;99.90;;;;;;5011070;28;20207;-68
2023/02/21 06:38:54;;;;;;;0.20;0.20;;;9.00;99.90;;;;;;5007820;28;20715;-68
2023/02/21 06:41:24;;;;;;;0.47;0.40;;;9.00;99.90;;;;;;5010428;28;20238;-68
2023/02/21 06:43:53;;;;;;;0.20;0.20;;;9.00;99.90;;;;;;5016111;28;20229;-68
2023/02/21 06:46:22;;;;;;;1.00;1.00;;;9.00;99.90;;;;;;5010890;28;20206;-68
2023/02/21 06:48:49;;;;;;;0.55;0.55;;;9.00;99.90;;;;;;5003901;28;20210;-68
2023/02/21 06:51:16;;;;;;;0.43;0.43;;;9.00;99.90;;;;;;5006987;28;20257;-69
2023/02/21 06:53:44;;;;;;;0.20;0.20;;;9.00;99.90;;;;;;5009537;28;20211;-69
2023/02/21 06:56:11;;;;;;;0.20;0.20;;;9.10;99.90;;;;;;5014233;28;20211;-68
2023/02/21 06:58:37;;;;;;;0.28;0.28;;;9.10;99.90;;;;;;5010713;28;20203;-68
2023/02/21 07:01:06;;;;;;;0.63;0.63;;;9.00;99.90;;;;;;5009786;28;20238;-68
2023/02/21 07:03:32;;;;;;;0.98;0.98;;;9.10;99.90;;;;;;5015766;28;20212;-68
2023/02/21 07:05:59;;;;;;;0.30;0.30;;;9.00;99.90;;;;;;5012634;28;20195;-68
2023/02/21 07:08:26;;;;;;;1.25;1.05;;;9.00;99.90;;;;;;5005249;28;20215;-68
2023/02/21 07:10:53;;;;;;;1.20;0.60;;;9.10;99.90;;;;;;5011807;28;20301;-68
2023/02/21 07:13:19;;;;;;;2.58;1.02;;;9.10;99.90;;;;;;5010541;28;20218;-68
2023/02/21 07:15:46;;;;;;;0.50;0.40;;;9.10;99.90;;;;;;5010389;28;21965;-67
2023/02/21 07:18:14;;;;;;;0.70;0.70;;;9.10;99.90;;;;;;5010282;28;20227;-68
2023/02/21 07:20:41;;;;;;;0.57;0.57;;;9.10;99.90;;;;;;5011216;28;20231;-68
2023/02/21 07:23:08;;;;;;;1.02;1.02;;;9.10;99.90;;;;;;5010962;28;20230;-68
2023/02/21 07:25:35;;;;;;;9.57;0.57;;;9.10;99.90;;;;;;5009061;28;20265;-68
2023/02/21 07:28:03;;;;;;;0.30;0.30;;;9.10;99.90;;;;;;5005309;28;20284;-69
2023/02/21 07:30:30;;;;;;;0.75;0.75;;;9.10;99.90;;;;;;5004855;28;20212;-67
2023/02/21 07:32:57;;;;;;;0.77;0.77;;;9.10;99.90;;;;;;5010119;28;20203;-67
2023/02/21 07:35:25;;;;;;;0.55;0.55;;;9.10;99.90;;;;;;5011971;28;20582;-69
2023/02/21 07:37:52;;;;;;;0.50;0.50;;;9.10;99.90;;;;;;5012720;28;20213;-68
2023/02/21 07:40:19;;;;;;;0.63;0.55;;;9.10;99.90;;;;;;5018199;28;20213;-67
2023/02/21 07:42:46;;;;;;;0.30;0.30;;;9.10;99.90;;;;;;5011828;28;20199;-67
2023/02/21 07:45:14;;;;;;;1.92;0.50;;;9.10;99.90;;;;;;5010064;28;20195;-67
2023/02/21 07:47:42;;;;;;;1.38;1.33;;;9.20;99.90;;;;;;5011572;28;20210;-67
2023/02/21 07:50:10;;;;;;;0.40;0.40;;;9.20;99.90;;;;;;5009596;28;20294;-67
2023/02/21 07:52:38;;;;;;;1.55;1.55;;;9.20;99.90;;;;;;5010830;28;20568;-68
2023/02/21 07:55:05;;;;;;;1.02;0.75;;;9.20;99.90;;;;;;5007581;28;20223;-67
2023/02/21 07:57:32;;;;;;;0.60;0.60;;;9.20;99.90;;;;;;5008145;28;20210;-67
2023/02/21 07:59:59;;;;;;;0.40;0.20;;;9.20;99.90;;;;;;5010890;28;20636;-67
2023/02/21 08:02:25;;;;;;;0.40;0.40;;;9.20;99.90;;;;;;5010396;28;20257;-68
2023/02/21 08:04:53;;;;;;;0.65;0.65;;;9.20;99.90;;;;;;5009774;28;20675;-68
2023/02/21 08:07:19;;;;;;;0.28;0.28;;;9.30;99.90;;;;;;5008675;28;20687;-69
2023/02/21 08:09:48;;;;;;;0.45;0.45;;;9.30;99.90;;;;;;5005783;28;20222;-69
2023/02/21 08:12:14;;;;;;;0.30;0.30;;;9.30;99.90;;;;;;5009000;28;20231;-69
2023/02/21 08:14:41;;;;;;;0.30;0.30;;;9.30;99.90;;;;;;5007783;28;20242;-68
2023/02/21 08:17:08;;;;;;;0.20;0.20;;;9.30;99.90;;;;;;5007731;28;20230;-68
2023/02/21 08:19:34;;;;;;;0.10;0.10;;;9.40;99.90;;;;;;5009087;28;20199;-69
2023/02/21 08:22:01;;;;;;;0.20;0.20;;;9.40;99.90;;;;;;5003322;28;20239;-70
2023/02/21 08:24:28;;;;;;;0.50;0.50;;;9.40;99.90;;;;;;5007369;28;20206;-68
2023/02/21 08:26:56;;;;;;;0.40;0.40;;;9.40;99.90;;;;;;5007443;28;20208;-68
2023/02/21 08:29:23;;;;;;;0.30;0.30;;;9.50;99.90;;;;;;5010769;28;20214;-68
2023/02/21 08:31:49;;;;;;;0.17;0.17;;;9.50;99.90;;;;;;5010223;28;20314;-69
2023/02/21 08:34:16;;;;;;;0.50;0.50;;;9.50;99.90;;;;;;5009412;28;20289;-68
2023/02/21 08:36:43;;;;;;;0.17;0.17;;;9.50;99.90;;;;;;5008057;28;20212;-69
2023/02/21 08:39:11;;;;;;;0.43;0.43;;;9.60;99.90;;;;;;5009600;28;20210;-69
2023/02/21 08:41:38;;;;;;;0.30;0.30;;;9.70;99.90;;;;;;5009386;28;20269;-69
2023/02/21 08:44:07;;;;;;;0.70;0.70;;;9.80;99.90;;;;;;5010822;28;20203;-69
2023/02/21 08:46:34;;;;;;;0.28;0.28;;;9.80;99.90;;;;;;5009715;28;20203;-69
2023/02/21 08:49:02;;;;;;;0.57;0.57;;;9.90;99.90;;;;;;5007905;28;20596;-68
2023/02/21 08:51:30;;;;;;;2.30;2.20;;;10.00;99.90;;;;;;5006046;28;20726;-69
2023/02/21 08:53:57;;;;;;;3.40;2.75;;;10.00;99.90;;;;;;5009304;28;20206;-68
2023/02/21 08:56:25;;;;;;;2.58;0.63;;;10.00;99.90;;;;;;5009283;28;20268;-69
2023/02/21 08:58:52;;;;;;;1.95;0.80;;;10.10;99.90;;;;;;5009759;28;20218;-69
2023/02/21 09:01:21;;;;;;;0.68;0.68;;;10.10;99.90;;;;;;5010456;28;20738;-69
2023/02/21 09:03:48;;;;;;;0.50;0.50;;;10.10;99.90;;;;;;5009185;28;20208;-69
2023/02/21 09:06:15;;;;;;;4.32;4.03;;;10.10;99.90;;;;;;5007419;28;20600;-69
2023/02/21 09:08:42;;;;;;;1.23;1.05;;;10.20;99.90;;;;;;5011134;28;20671;-69
2023/02/21 09:11:09;;;;;;;1.27;1.17;;;10.20;99.90;;;;;;5013364;28;20234;-69
2023/02/21 09:13:36;;;;;;;0.77;0.77;;;10.20;99.90;;;;;;5010925;28;20218;-69
2023/02/21 09:16:04;;;;;;;0.82;0.70;;;10.30;99.90;;;;;;5013062;28;20593;-69
2023/02/21 09:18:32;;;;;;;3.55;3.25;;;10.30;99.90;;;;;;5009675;28;20222;-69
2023/02/21 09:20:59;;;;;;;1.25;1.05;;;10.40;99.90;;;;;;5010306;28;20230;-69
2023/02/21 09:23:28;;;;;;;0.50;0.50;;;10.40;99.90;;;;;;5010114;28;20203;-69
2023/02/21 09:25:55;;;;;;;0.77;0.40;;;10.50;99.90;;;;;;5011301;28;20291;-69
2023/02/21 09:28:23;;;;;;;0.43;0.43;;;10.50;99.90;;;;;;5014147;28;20258;-70
2023/02/21 09:30:50;;;;;;;1.67;1.67;;;10.50;99.90;;;;;;5013056;28;20256;-69
2023/02/21 09:33:17;;;;;;;1.00;1.00;;;10.50;99.90;;;;;;5012442;28;20205;-69
2023/02/21 09:35:45;;;;;;;0.63;0.63;;;10.50;99.90;;;;;;5012841;28;20249;-69
2023/02/21 09:38:12;;;;;;;1.30;0.60;;;10.50;99.90;;;;;;5010973;28;20203;-69
2023/02/21 09:40:42;;;;;;;0.60;0.60;;;10.50;99.90;;;;;;5012588;28;20314;-68
2023/02/21 09:43:14;;;;;;;0.50;0.50;;;10.50;99.90;;;;;;5014164;28;20210;-69
2023/02/21 09:45:42;;;;;;;0.30;0.30;;;10.40;99.90;;;;;;5013069;28;20199;-68
2023/02/21 09:48:13;;;;;;;2.95;2.05;;;10.40;99.90;;;;;;5011151;28;20211;-68
2023/02/21 09:50:43;;;;;;;0.68;0.68;;;10.30;99.90;;;;;;5011208;28;20234;-70
2023/02/21 09:53:14;;;;;;;1.70;1.42;;;10.30;99.90;;;;;;5008969;28;20207;-69
2023/02/21 09:55:41;;;;;;;2.13;2.00;;;10.30;99.90;;;;;;5010540;28;20219;-68
2023/02/21 09:58:11;;;;;;;1.58;0.60;;;10.30;99.90;;;;;;5009175;28;20199;-68
2023/02/21 10:00:39;;;;;;;1.48;1.27;;;10.20;99.90;;;;;;5008296;28;20238;-67
2023/02/21 10:03:19;;;;;;;1.65;1.55;;;10.20;99.90;;;;;;5012332;28;20279;-68
2023/02/21 10:05:48;;;;;;;5.65;3.42;;;10.10;99.90;;;;;;5002826;28;20207;-68
2023/02/21 10:08:23;;;;;;;1.33;1.02;;;10.10;99.90;;;;;;5008777;28;20230;-68
2023/02/21 10:10:56;;;;;;;3.20;3.10;;;10.10;99.90;;;;;;5012215;28;20230;-68
2023/02/21 10:13:31;;;;;;;1.65;1.55;;;10.10;99.90;;;;;;5008267;28;20219;-68
2023/02/21 10:16:03;;;;;;;1.50;1.40;;;10.10;99.90;;;;;;5010319;28;20759;-68
2023/02/21 10:18:37;;;;;;;1.23;1.17;;;10.10;99.90;;;;;;5013480;28;20210;-70
2023/02/21 10:21:12;;;;;;;1.27;1.27;;;10.00;99.90;;;;;;5011440;28;20302;-68
2023/02/21 10:23:45;;;;;;;1.20;1.00;;;10.00;99.90;;;;;;5008651;28;20203;-69
2023/02/21 10:26:16;;;;;;;1.80;1.80;;;10.10;99.90;;;;;;5013261;28;20231;-69
2023/02/21 10:28:43;;;;;;;0.70;0.65;;;10.00;99.90;;;;;;5013373;28;20515;-69
2023/02/21 10:31:15;;;;;;;0.82;0.77;;;9.90;99.90;;;;;;5012238;28;20223;-68
2023/02/21 10:33:43;;;;;;;1.45;1.13;;;10.00;99.90;;;;;;5012283;28;20290;-69
2023/02/21 10:36:13;;;;;;;0.85;0.85;;;10.00;99.90;;;;;;5009609;28;20233;-68
2023/02/21 10:38:42;;;;;;;1.42;0.55;;;10.00;99.90;;;;;;5011681;28;20204;-68
2023/02/21 10:41:11;;;;;;;1.20;1.10;;;9.90;99.90;;;;;;5012774;28;20230;-68
2023/02/21 10:43:43;;;;;;;2.28;1.23;;;9.90;99.90;;;;;;5011900;28;20210;-70
2023/02/21 10:46:18;;;;;;;2.70;0.88;;;9.90;99.90;;;;;;5012813;28;20219;-70
2023/02/21 10:48:47;;;;;;;0.90;0.90;;;10.00;99.90;;;;;;5012396;28;20217;-69
2023/02/21 10:51:16;;;;;;;1.95;0.88;;;10.10;99.90;;;;;;5011509;28;20238;-70
2023/02/21 10:53:45;;;;;;;5.45;1.50;;;10.10;99.90;;;;;;5012568;28;20199;-69
2023/02/21 10:56:22;;;;;;;1.75;1.33;;;10.20;99.90;;;;;;5012220;28;20241;-70
2023/02/21 10:58:52;;;;;;;3.40;1.60;;;10.20;99.90;;;;;;5011379;28;20211;-69
2023/02/21 11:01:21;;;;;;;1.23;0.93;;;10.20;99.90;;;;;;5012114;28;20672;-68
2023/02/21 11:03:50;;;;;;;2.92;2.65;;;10.20;99.90;;;;;;5011809;28;20215;-68
2023/02/21 11:06:27;;;;;;;0.80;0.80;;;10.30;99.90;;;;;;5010563;28;20196;-68
2023/02/21 11:08:55;;;;;;;4.03;1.60;;;10.30;99.90;;;;;;5012322;28;20210;-69
2023/02/21 11:11:33;;;;;;;0.60;0.60;;;10.30;99.90;;;;;;5011432;28;20239;-69
2023/02/21 11:14:21;;;;;;;0.70;0.70;;;10.40;99.90;;;;;;5011304;28;20245;-68
2023/02/21 11:17:13;;;;;;;5.83;1.83;;;10.40;99.90;;;;;;5006467;28;20322;-68
2023/02/21 11:19:49;;;;;;;2.60;1.48;;;10.30;99.90;;;;;;5005977;28;20782;-69
2023/02/21 11:22:18;;;;;;;5.03;1.58;;;10.30;99.90;;;;;;5010041;28;20241;-69
2023/02/21 11:24:55;;;;;;;6.63;2.72;;;10.20;99.90;;;;;;5009898;28;20214;-69
2023/02/21 11:27:22;;;;;;;1.70;1.70;;;10.20;99.90;;;;;;5011845;28;20195;-69
2023/02/21 11:29:51;;;;;;;3.60;0.70;;;10.10;99.90;;;;;;5012085;28;20203;-69
2023/02/21 11:32:26;;;;;;;0.90;0.90;;;10.10;99.90;;;;;;5010733;28;20238;-68
2023/02/21 11:35:05;;;;;;;20.98;1.40;;;10.10;99.90;;;;;;5010995;28;20199;-70
2023/02/21 11:37:32;;;;;;;3.13;0.52;;;10.10;99.90;;;;;;5003615;28;20227;-69
2023/02/21 11:40:00;;;;;;;3.08;2.78;;;10.10;99.90;;;;;;5010913;28;20678;-68
2023/02/21 11:42:30;;;;;;;1.05;1.02;;;10.10;99.90;;;;;;5011471;28;20273;-69
2023/02/21 11:45:25;;;;;;;0.55;0.55;;;10.10;99.90;;;;;;5011737;28;20314;-68
2023/02/21 11:47:57;;;;;;;0.93;0.93;;;10.10;99.90;;;;;;5002062;28;20294;-69
2023/02/21 11:50:27;;;;;;;0.73;0.73;;;10.20;99.90;;;;;;5005014;28;20652;-68
2023/02/21 11:53:01;;;;;;;1.20;1.10;;;10.20;99.90;;;;;;5004541;28;20203;-68
2023/02/21 11:55:29;;;;;;;1.25;1.15;;;10.30;99.90;;;;;;5010810;28;20203;-68
2023/02/21 11:58:05;;;;;;;1.95;1.27;;;10.30;99.90;;;;;;5008711;28;20210;-68
2023/02/21 12:00:42;;;;;;;1.40;0.90;;;10.40;99.90;;;;;;5008766;28;20243;-68
2023/02/21 12:03:28;;;;;;;0.82;0.80;;;10.40;99.90;;;;;;5005532;28;20199;-68
2023/02/21 12:06:01;;;;;;;6.53;0.80;;;10.40;99.90;;;;;;5007632;28;20562;-68
2023/02/21 12:08:42;;;;;;;0.75;0.40;;;10.30;99.90;;;;;;5007129;28;20329;-68
2023/02/21 12:11:38;;;;;;;1.15;1.13;;;10.30;99.90;;;;;;5013415;28;20234;-68
2023/02/21 12:14:16;;;;;;;3.83;0.82;;;10.30;99.90;;;;;;4984003;28;20302;-68
2023/02/21 12:16:54;;;;;;;0.63;0.63;;;10.40;99.90;;;;;;5004392;28;20227;-68
2023/02/21 12:19:40;;;;;;;2.10;1.20;;;10.50;99.90;;;;;;5010853;28;20211;-67
2023/02/21 12:22:19;;;;;;;0.40;0.40;;;10.60;99.90;;;;;;4998071;28;20238;-68
2023/02/21 12:25:03;;;;;;;0.52;0.52;;;10.60;99.90;;;;;;5006862;28;20202;-68
2023/02/21 12:27:41;;;;;;;0.30;0.30;;;10.70;99.90;;;;;;5002876;28;20195;-67
2023/02/21 12:30:29;;;;;;;0.30;0.30;;;10.80;99.90;;;;;;5008746;28;20195;-68
2023/02/21 12:33:06;;;;;;;8.10;1.05;;;10.80;99.90;;;;;;5010632;28;20207;-68
2023/02/21 12:35:48;;;;;;;1.00;1.00;;;10.80;99.90;;;;;;5007090;28;20206;-68
2023/02/21 12:38:25;;;;;;;1.00;1.00;;;10.90;99.90;;;;;;5004708;28;20207;-68
2023/02/21 12:41:00;;;;;;;0.95;0.93;;;10.90;99.90;;;;;;4997901;28;20631;-68
2023/02/21 12:43:47;;;;;;;0.82;0.82;;;11.00;99.90;;;;;;5003563;28;20206;-68
2023/02/21 12:46:23;;;;;;;0.50;0.50;;;11.00;99.90;;;;;;5006418;28;20200;-68
2023/02/21 12:48:57;;;;;;;1.58;0.93;;;11.00;99.90;;;;;;5005533;28;20225;-68
2023/02/21 12:51:28;;;;;;;0.77;0.75;;;11.00;99.90;;;;;;5005705;28;20226;-68
2023/02/21 12:54:00;;;;;;;2.60;0.57;;;11.00;99.90;;;;;;5004063;28;20930;-68
2023/02/21 12:56:32;;;;;;;0.77;0.77;;;10.90;99.90;;;;;;5005977;28;20215;-68
2023/02/21 12:59:07;;;;;;;0.88;0.80;;;10.90;99.90;;;;;;5006675;28;20237;-68
2023/02/21 13:01:39;;;;;;;0.40;0.40;;;10.90;99.90;;;;;;5005870;28;20284;-68
2023/02/21 13:04:16;;;;;;;1.30;1.10;;;10.80;99.90;;;;;;5001496;28;20203;-68
2023/02/21 13:06:48;;;;;;;1.00;1.00;;;10.90;99.90;;;;;;5003626;28;20203;-68
2023/02/21 13:09:22;;;;;;;0.20;0.20;;;10.90;99.90;;;;;;5007680;28;20207;-68
2023/02/21 13:11:56;;;;;;;0.30;0.30;;;10.90;99.90;;;;;;5008898;28;20238;-68
2023/02/21 13:14:29;;;;;;;0.30;0.30;;;10.90;99.90;;;;;;5008923;28;20233;-68
2023/02/21 13:16:55;;;;;;;1.27;1.27;;;10.90;99.90;;;;;;5010071;28;20241;-68
2023/02/21 13:19:23;;;;;;;0.73;0.73;;;10.90;99.90;;;;;;5009901;28;20199;-69
2023/02/21 13:25:04;;;;;;;0.50;0.50;;;10.80;99.90;;;;;;5004842;28;20206;-68
2023/02/21 13:27:57;;;;;;;0.32;0.32;;;10.80;99.90;;;;;;5010336;28;20187;-66
2023/02/21 13:30:28;;;;;;;0.50;0.50;;;10.90;99.90;;;;;;5010602;28;20213;-68
2023/02/21 13:32:57;;;;;;;0.52;0.52;;;10.90;99.90;;;;;;5009826;28;20204;-69
2023/02/21 13:35:31;;;;;;;0.45;0.45;;;11.00;99.90;;;;;;5009754;28;20219;-68
2023/02/21 13:38:00;;;;;;;1.10;0.73;;;11.00;99.90;;;;;;5009058;28;20234;-69
2023/02/21 13:40:36;;;;;;;0.77;0.77;;;11.00;99.90;;;;;;5010591;28;20199;-69
2023/02/21 13:43:07;;;;;;;1.35;0.52;;;11.10;99.90;;;;;;5009553;28;20278;-69
2023/02/21 13:45:35;;;;;;;0.70;0.70;;;11.20;99.90;;;;;;5002794;28;20658;-69
2023/02/21 13:48:23;;;;;;;0.20;0.20;;;11.20;99.90;;;;;;5010755;28;20203;-69
2023/02/21 13:50:52;;;;;;;0.70;0.70;;;11.20;99.90;;;;;;5008407;28;20234;-69
2023/02/21 13:53:21;;;;;;;0.40;0.40;;;11.20;99.90;;;;;;5008308;28;20214;-69
2023/02/21 13:56:13;;;;;;;0.30;0.30;;;11.20;99.90;;;;;;5012631;28;20536;-67
2023/02/21 13:58:42;;;;;;;0.35;0.35;;;11.20;99.90;;;;;;5008144;28;20477;-68
2023/02/21 14:01:23;;;;;;;0.50;0.50;;;11.20;99.90;;;;;;5013613;28;20253;-67
2023/02/21 14:03:52;;;;;;;0.73;0.73;;;11.10;99.90;;;;;;5011145;28;20211;-68
2023/02/21 14:06:36;;;;;;;0.50;0.50;;;11.10;99.90;;;;;;5013385;28;20291;-67
2023/02/21 14:09:15;;;;;;;0.35;0.35;;;11.10;99.90;;;;;;5013294;28;20261;-68
2023/02/21 14:11:48;;;;;;;0.50;0.50;;;11.00;99.90;;;;;;5013493;28;20230;-69
2023/02/21 14:14:25;;;;;;;0.30;0.30;;;11.00;99.90;;;;;;5011248;28;20215;-67
2023/02/21 14:17:00;;;;;;;0.30;0.30;;;10.90;99.90;;;;;;5012728;28;20591;-67
2023/02/21 14:19:35;;;;;;;0.30;0.30;;;10.90;99.90;;;;;;5009777;28;20203;-67
2023/02/21 14:22:05;;;;;;;0.20;0.20;;;10.90;99.90;;;;;;5012438;28;20305;-67
2023/02/21 14:24:37;;;;;;;0.20;0.20;;;10.90;99.90;;;;;;5010463;28;20700;-67
2023/02/21 14:27:25;;;;;;;0.40;0.32;;;10.90;99.90;;;;;;5012746;28;20225;-67
2023/02/21 14:30:31;;;;;;;1.40;1.40;;;11.00;99.90;;;;;;4993312;28;20246;-67
2023/02/21 14:33:16;;;;;;;6.70;4.97;;;11.10;99.90;;;;;;5009096;28;20222;-66
2023/02/21 14:35:51;;;;;;;2.53;2.15;;;11.00;99.90;;;;;;5012484;28;20559;-66
2023/02/21 14:38:21;;;;;;;1.08;1.08;;;11.00;99.90;;;;;;5012853;28;20238;-66
2023/02/21 14:41:02;;;;;;;1.25;1.23;;;10.90;99.90;;;;;;5013030;28;20238;-66
2023/02/21 14:44:09;;;;;;;2.65;0.85;;;10.80;99.90;;;;;;5011399;28;20203;-67
2023/02/21 14:47:06;;;;;;;1.30;1.30;;;10.80;99.90;;;;;;5009251;28;20199;-67
2023/02/21 14:50:00;;;;;;;0.63;0.57;;;10.70;99.90;;;;;;4983316;28;20212;-69
2023/02/21 14:52:55;;;;;;;0.77;0.30;;;10.60;99.90;;;;;;4993065;28;20227;-69
2023/02/21 14:55:39;;;;;;;1.10;1.05;;;10.50;99.90;;;;;;5010485;28;20319;-69
2023/02/21 14:58:39;;;;;;;0.35;0.35;;;10.40;99.90;;;;;;5011928;28;20334;-69
2023/02/21 15:01:14;;;;;;;1.17;1.13;;;10.40;99.90;;;;;;5012241;28;20231;-69
2023/02/21 15:03:46;;;;;;;1.30;0.50;;;10.30;99.90;;;;;;5010712;28;20209;-69
2023/02/21 15:06:19;;;;;;;0.77;0.77;;;10.20;99.90;;;;;;5011522;28;20207;-69
2023/02/21 15:08:50;;;;;;;0.90;0.90;;;10.10;99.90;;;;;;5012344;28;20366;-69
2023/02/21 15:11:22;;;;;;;0.82;0.82;;;10.10;99.90;;;;;;5011344;28;20227;-68
2023/02/21 15:14:22;;;;;;;0.40;0.40;;;10.10;99.90;;;;;;5011164;28;20633;-69
2023/02/21 15:16:52;;;;;;;0.70;0.70;;;10.00;99.90;;;;;;5008004;28;20231;-68
2023/02/21 15:19:27;;;;;;;1.20;0.60;;;10.00;99.90;;;;;;5010512;28;20577;-70
2023/02/21 15:22:14;;;;;;;0.70;0.70;;;10.00;99.90;;;;;;5011747;28;20226;-69
2023/02/21 15:24:41;;;;;;;0.47;0.47;;;9.90;99.90;;;;;;5010916;28;20740;-69
2023/02/21 15:27:10;;;;;;;0.38;0.38;;;9.90;99.90;;;;;;5011767;28;20192;-69
2023/02/21 15:29:39;;;;;;;4.60;0.95;;;9.90;99.90;;;;;;5011298;28;20212;-69
2023/02/21 15:32:06;;;;;;;1.13;1.13;;;9.90;99.90;;;;;;5008927;28;20223;-68
2023/02/21 15:34:37;;;;;;;0.20;0.20;;;9.90;99.90;;;;;;5008561;28;20298;-69
2023/02/21 15:37:13;;;;;;;0.88;0.88;;;9.90;99.90;;;;;;5011558;28;20325;-70
2023/02/21 15:39:45;;;;;;;0.85;0.65;;;9.90;99.90;;;;;;5011637;28;20210;-69
2023/02/21 15:42:16;;;;;;;1.17;1.17;;;9.80;99.90;;;;;;5010563;28;20555;-69
2023/02/21 15:44:47;;;;;;;0.50;0.47;;;9.90;99.90;;;;;;5010414;28;20218;-69
2023/02/21 15:47:18;;;;;;;0.77;0.77;;;9.80;99.90;;;;;;5010514;28;20207;-69
2023/02/21 15:49:51;;;;;;;1.30;1.00;;;9.80;99.90;;;;;;5011055;28;20195;-69
2023/02/21 15:52:28;;;;;;;0.73;0.30;;;9.80;99.90;;;;;;5008829;28;20238;-69
2023/02/21 15:55:13;;;;;;;0.52;0.52;;;9.80;99.90;;;;;;5006885;28;20644;-69
2023/02/21 15:57:40;;;;;;;0.55;0.55;;;9.80;99.90;;;;;;5007783;28;20227;-68
2023/02/21 16:00:26;;;;;;;1.08;1.08;;;9.70;99.90;;;;;;5003912;28;20664;-69
2023/02/21 16:02:53;;;;;;;1.27;1.23;;;9.70;99.90;;;;;;5007239;28;20203;-69
2023/02/21 16:05:24;;;;;;;11.52;1.65;;;9.70;99.90;;;;;;5010176;28;20306;-69
2023/02/21 16:07:53;;;;;;;0.57;0.57;;;9.70;99.90;;;;;;5009054;28;20207;-69
2023/02/21 16:10:23;;;;;;;1.08;1.00;;;9.70;99.90;;;;;;5005864;28;20223;-66
2023/02/21 16:12:56;;;;;;;0.52;0.47;;;9.70;99.90;;;;;;5009309;28;20203;-69
2023/02/21 16:15:27;;;;;;;0.80;0.80;;;9.70;99.90;;;;;;5009152;28;20199;-70
2023/02/21 16:17:55;;;;;;;1.38;1.08;;;9.70;99.90;;;;;;5007770;28;20231;-69
2023/02/21 16:20:27;;;;;;;1.63;1.58;;;9.70;99.90;;;;;;5009010;28;20313;-69
2023/02/21 16:23:13;;;;;;;2.75;2.63;;;9.60;99.90;;;;;;5006938;28;20203;-69
2023/02/21 16:25:59;;;;;;;3.72;3.33;;;9.60;99.90;;;;;;5009000;28;20238;-69
2023/02/21 16:28:26;;;;;;;5.57;3.20;;;9.60;99.90;;;;;;5007500;28;20222;-69
2023/02/21 16:30:57;;;;;;;1.58;1.48;;;9.60;99.90;;;;;;5009917;28;20230;-69
2023/02/21 16:33:25;;;;;;;1.13;1.10;;;9.60;99.90;;;;;;5009695;28;20203;-69
2023/02/21 16:35:52;;;;;;;1.73;1.73;;;9.60;99.90;;;;;;5007605;28;20207;-70
2023/02/21 16:38:21;;;;;;;1.85;1.85;;;9.60;99.90;;;;;;5007460;28;20230;-69
2023/02/21 16:40:48;;;;;;;4.22;3.20;;;9.60;99.90;;;;;;5006792;28;20226;-69
2023/02/21 16:43:21;;;;;;;7.82;2.28;;;9.60;99.90;;;;;;5008720;28;20218;-68
2023/02/21 16:45:50;;;;;;;1.60;1.50;;;9.60;99.90;;;;;;5009167;28;20222;-68
2023/02/21 16:48:21;;;;;;;9.18;2.80;;;9.50;99.90;;;;;;5004478;28;20257;-69
2023/02/21 16:50:49;;;;;;;2.25;2.13;;;9.50;99.90;;;;;;5007311;28;20230;-70
2023/02/21 16:53:17;;;;;;;4.88;2.42;;;9.50;99.90;;;;;;5004322;28;20230;-71
2023/02/21 16:55:45;;;;;;;1.25;1.15;;;9.40;99.90;;;;;;5008287;28;20207;-70
2023/02/21 16:58:22;;;;;;;2.83;2.67;;;9.50;99.90;;;;;;5007386;28;20703;-70
2023/02/21 17:00:50;;;;;;;13.80;1.35;;;9.40;99.90;;;;;;4996286;28;20226;-69
2023/02/21 17:03:18;;;;;;;2.42;1.80;;;9.40;99.90;;;;;;5006129;28;20211;-69
2023/02/21 17:05:45;;;;;;;0.80;0.80;;;9.40;99.90;;;;;;5002354;28;20910;-68
2023/02/21 17:08:11;;;;;;;1.45;1.08;;;9.40;99.90;;;;;;5004952;28;20203;-68
2023/02/21 17:10:38;;;;;;;0.70;0.70;;;9.40;99.90;;;;;;5007490;28;20218;-67
2023/02/21 17:13:05;;;;;;;1.35;1.35;;;9.40;99.90;;;;;;5007020;28;20227;-67
2023/02/21 17:15:32;;;;;;;1.58;1.05;;;9.40;99.90;;;;;;5013368;28;20207;-67
2023/02/21 17:17:59;;;;;;;4.70;2.65;;;9.40;99.90;;;;;;5007591;28;20226;-67
2023/02/21 17:20:27;;;;;;;1.98;1.83;;;9.40;99.90;;;;;;5007115;28;20211;-66
2023/02/21 17:22:57;;;;;;;2.28;0.95;;;9.40;99.90;;;;;;5004466;28;20756;-66
2023/02/21 17:25:24;;;;;;;2.25;2.15;;;9.40;99.90;;;;;;5008577;28;20213;-66
2023/02/21 17:27:52;;;;;;;2.40;2.25;;;9.40;99.90;;;;;;5007102;28;20299;-66
2023/02/21 17:30:22;;;;;;;2.92;2.65;;;9.40;99.90;;;;;;5005245;28;20210;-67
2023/02/21 17:32:49;;;;;;;7.63;4.30;;;9.40;99.90;;;;;;5011211;28;20342;-67
2023/02/21 17:35:18;;;;;;;4.40;3.17;;;9.40;99.90;;;;;;5011038;28;20539;-67
2023/02/21 17:37:48;;;;;;;4.30;4.05;;;9.40;99.90;;;;;;5011363;28;20591;-67
2023/02/21 17:40:16;;;;;;;9.90;3.92;;;9.30;99.90;;;;;;5010390;28;20238;-67
2023/02/21 17:42:43;;;;;;;3.90;3.70;;;9.30;99.90;;;;;;5012028;28;20200;-68
2023/02/21 17:45:10;;;;;;;3.88;3.58;;;9.30;99.90;;;;;;5009869;28;20231;-68
2023/02/21 17:47:37;;;;;;;7.72;4.40;;;9.30;99.90;;;;;;5008084;28;20203;-68
2023/02/21 17:50:05;;;;;;;4.78;4.38;;;9.30;99.90;;;;;;5011034;28;20214;-68
2023/02/21 17:52:32;;;;;;;4.88;3.58;;;9.30;99.90;;;;;;5011017;28;20245;-67
2023/02/21 17:55:06;;;;;;;5.75;3.45;;;9.30;99.90;;;;;;5011404;28;20218;-67
2023/02/21 17:57:36;;;;;;;5.13;3.58;;;9.20;99.90;;;;;;5010290;28;20595;-67
2023/02/21 18:00:06;;;;;;;6.15;3.85;;;9.20;99.90;;;;;;5012564;28;20204;-68
2023/02/21 18:02:33;;;;;;;13.73;5.70;;;9.20;99.90;;;;;;5012165;28;20279;-67
2023/02/21 18:05:00;;;;;;;8.20;6.70;;;9.20;99.90;;;;;;5012091;28;20203;-67
2023/02/21 18:07:30;;;;;;;5.90;3.92;;;9.10;99.90;;;;;;5010998;28;20203;-67
2023/02/21 18:09:57;;;;;;;7.13;4.70;;;9.10;99.90;;;;;;5011772;28;20207;-67
2023/02/21 18:12:25;;;;;;;13.38;6.75;;;9.10;99.90;;;;;;5011237;28;20629;-68
2023/02/21 18:14:52;;;;;;;9.20;6.70;;;9.10;99.90;;;;;;5012531;28;20298;-67
2023/02/21 18:17:19;;;;;;;12.02;4.13;;;9.00;99.90;;;;;;5009600;28;20230;-68